Time;durP1;ratioP1;P1;durP2;ratioP2;P2;SDS_P1;SDS_P2;PMS_P1;PMS_P2;Temp;Humidity;BMP_temperature;BMP_pressure;BME280_temperature;BME280_humidity;BME280_pressure;Samples;Min_cycle;Max_cycle;Signal;HPM_P1;HPM_P2
2023/09/02 00:02:35;;;;;;;2.72;2.50;;;;;;;;;;10426183;28;20693;-72
2023/09/02 00:07:36;;;;;;;2.00;1.90;;;;;;;;;;10425903;28;20678;-71
2023/09/02 00:12:37;;;;;;;2.53;2.42;;;;;;;;;;10413833;28;20223;-70
2023/09/02 00:17:38;;;;;;;2.55;1.90;;;;;;;;;;10429156;28;20389;-70
2023/09/02 00:22:41;;;;;;;2.67;2.55;;;;;;;;;;10425420;28;21213;-71
2023/09/02 00:27:42;;;;;;;3.05;2.78;;;;;;;;;;10427168;28;20842;-70
2023/09/02 00:32:43;;;;;;;2.13;2.03;;;;;;;;;;10425408;28;20342;-71
2023/09/02 00:37:44;;;;;;;3.70;2.13;;;;;;;;;;10423638;28;20230;-69
2023/09/02 00:42:46;;;;;;;2.70;2.50;;;;;;;;;;10424399;28;20727;-72
2023/09/02 00:47:47;;;;;;;4.68;2.38;;;;;;;;;;10411861;28;20215;-71
2023/09/02 00:52:48;;;;;;;3.03;2.60;;;;;;;;;;10425396;28;20238;-70
2023/09/02 00:57:49;;;;;;;2.53;2.33;;;;;;;;;;10425858;28;20260;-70
2023/09/02 01:02:52;;;;;;;2.80;2.70;;;;;;;;;;10426360;28;20301;-72
2023/09/02 01:07:53;;;;;;;4.78;2.58;;;;;;;;;;10426229;28;20596;-71
2023/09/02 01:12:54;;;;;;;3.33;2.05;;;;;;;;;;10429859;28;20254;-71
2023/09/02 01:17:56;;;;;;;2.70;2.50;;;;;;;;;;10430894;28;20226;-72
2023/09/02 01:22:58;;;;;;;3.25;2.65;;;;;;;;;;10422604;28;20214;-70
2023/09/02 01:28:03;;;;;;;3.33;2.40;;;;;;;;;;10424371;28;20308;-69
2023/09/02 01:33:06;;;;;;;2.35;2.15;;;;;;;;;;10424914;28;20306;-72
2023/09/02 01:38:08;;;;;;;2.92;2.72;;;;;;;;;;10431087;28;20218;-75
2023/09/02 01:43:10;;;;;;;1.90;1.80;;;;;;;;;;10414653;28;20677;-70
2023/09/02 01:48:11;;;;;;;2.60;2.50;;;;;;;;;;10424341;28;20310;-72
2023/09/02 01:53:12;;;;;;;2.83;2.55;;;;;;;;;;10418058;28;20222;-71
2023/09/02 01:58:13;;;;;;;1.92;1.83;;;;;;;;;;10423543;28;20265;-70
2023/09/02 02:03:17;;;;;;;1.77;1.77;;;;;;;;;;10424519;28;20663;-73
2023/09/02 02:08:31;;;;;;;2.85;1.92;;;;;;;;;;10430301;28;20216;-69
2023/09/02 02:13:32;;;;;;;2.67;2.47;;;;;;;;;;10420161;28;20227;-69
2023/09/02 02:18:33;;;;;;;2.10;2.08;;;;;;;;;;10421509;28;20302;-75
2023/09/02 02:23:34;;;;;;;2.03;2.03;;;;;;;;;;10420430;28;20215;-70
2023/09/02 02:28:37;;;;;;;2.88;2.67;;;;;;;;;;10420337;28;20214;-72
2023/09/02 02:33:39;;;;;;;3.70;2.45;;;;;;;;;;10420524;28;20284;-71
2023/09/02 02:38:40;;;;;;;3.97;2.45;;;;;;;;;;10420717;28;20207;-75
2023/09/02 02:43:41;;;;;;;2.67;2.58;;;;;;;;;;10417215;28;20305;-70
2023/09/02 02:48:43;;;;;;;5.30;2.33;;;;;;;;;;10405469;28;20218;-71
2023/09/02 02:53:44;;;;;;;3.67;2.22;;;;;;;;;;10416496;28;20219;-69
2023/09/02 02:58:45;;;;;;;2.75;2.35;;;;;;;;;;10420798;28;20677;-71
2023/09/02 03:03:48;;;;;;;2.45;2.35;;;;;;;;;;10407724;28;20502;-70
2023/09/02 03:08:49;;;;;;;11.93;3.58;;;;;;;;;;10421035;28;20747;-72
2023/09/02 03:13:50;;;;;;;2.80;2.70;;;;;;;;;;10418592;28;20677;-74
2023/09/02 03:18:56;;;;;;;4.28;2.95;;;;;;;;;;10403193;28;20625;-70
2023/09/02 03:23:57;;;;;;;3.05;2.75;;;;;;;;;;10417176;28;20298;-70
2023/09/02 03:28:59;;;;;;;3.33;2.83;;;;;;;;;;10423523;28;20215;-74
2023/09/02 03:34:00;;;;;;;3.33;3.00;;;;;;;;;;10420056;28;20272;-73
2023/09/02 03:39:02;;;;;;;3.45;3.15;;;;;;;;;;10402931;28;20239;-75
2023/09/02 03:44:03;;;;;;;3.47;3.17;;;;;;;;;;10416375;28;20696;-70
2023/09/02 03:49:04;;;;;;;5.05;2.72;;;;;;;;;;10421102;28;20219;-72
2023/09/02 03:54:06;;;;;;;5.57;3.55;;;;;;;;;;10414130;28;20224;-71
2023/09/02 03:59:08;;;;;;;3.67;3.38;;;;;;;;;;10426257;28;20250;-70
2023/09/02 04:04:09;;;;;;;3.55;3.22;;;;;;;;;;10394154;28;20216;-71
2023/09/02 04:09:10;;;;;;;2.67;2.58;;;;;;;;;;10419553;28;20274;-76
2023/09/02 04:14:12;;;;;;;3.13;2.88;;;;;;;;;;10428945;28;20237;-69
2023/09/02 04:19:14;;;;;;;3.42;3.22;;;;;;;;;;10402428;28;20442;-68
2023/09/02 04:24:15;;;;;;;3.05;2.90;;;;;;;;;;10440994;28;20211;-72
2023/09/02 04:29:17;;;;;;;4.65;2.67;;;;;;;;;;10425766;28;20218;-70
2023/09/02 04:34:19;;;;;;;3.28;3.08;;;;;;;;;;10426525;28;20215;-76
2023/09/02 04:39:23;;;;;;;3.20;3.00;;;;;;;;;;10412471;28;20326;-70
2023/09/02 04:44:24;;;;;;;3.80;2.92;;;;;;;;;;10423504;28;20207;-70
2023/09/02 04:49:27;;;;;;;3.03;2.72;;;;;;;;;;10408233;28;20211;-70
2023/09/02 04:54:29;;;;;;;3.00;2.80;;;;;;;;;;10407671;28;20908;-72
2023/09/02 04:59:30;;;;;;;4.90;3.60;;;;;;;;;;10408849;28;20648;-72
2023/09/02 05:04:31;;;;;;;3.47;3.17;;;;;;;;;;10426460;28;20214;-72
2023/09/02 05:09:32;;;;;;;6.88;2.65;;;;;;;;;;10427266;28;20692;-69
2023/09/02 05:14:36;;;;;;;3.40;3.10;;;;;;;;;;10438831;28;20329;-74
2023/09/02 05:19:37;;;;;;;6.45;3.60;;;;;;;;;;10425479;28;20230;-70
2023/09/02 05:24:38;;;;;;;3.60;3.40;;;;;;;;;;10426030;28;20678;-71
2023/09/02 05:29:40;;;;;;;5.03;3.45;;;;;;;;;;10423923;28;20219;-76
2023/09/02 05:34:41;;;;;;;4.47;3.95;;;;;;;;;;10428809;28;20207;-74
2023/09/02 05:39:42;;;;;;;4.30;3.90;;;;;;;;;;10423444;28;20636;-72
2023/09/02 05:44:43;;;;;;;4.45;3.40;;;;;;;;;;10422402;28;20215;-71
2023/09/02 05:49:44;;;;;;;3.13;2.92;;;;;;;;;;10422953;28;20214;-70
2023/09/02 05:54:45;;;;;;;4.15;3.75;;;;;;;;;;10420702;28;20204;-71
2023/09/02 05:59:46;;;;;;;6.75;4.15;;;;;;;;;;10419814;28;20210;-71
2023/09/02 06:04:48;;;;;;;4.43;4.03;;;;;;;;;;10423102;28;20215;-70
2023/09/02 06:09:49;;;;;;;4.43;4.07;;;;;;;;;;10420802;28;20219;-75
2023/09/02 06:14:50;;;;;;;6.75;4.10;;;;;;;;;;10419740;28;20633;-75
2023/09/02 06:19:51;;;;;;;4.88;3.90;;;;;;;;;;10422719;28;20230;-72
2023/09/02 06:24:54;;;;;;;3.65;3.47;;;;;;;;;;10424263;28;20215;-71
2023/09/02 06:29:55;;;;;;;4.45;4.15;;;;;;;;;;10428096;28;20295;-72
2023/09/02 06:34:57;;;;;;;5.03;4.05;;;;;;;;;;10424977;28;20323;-71
2023/09/02 06:39:58;;;;;;;4.30;3.47;;;;;;;;;;10421970;28;20219;-74
2023/09/02 06:45:00;;;;;;;5.07;3.28;;;;;;;;;;10420549;28;20898;-73
2023/09/02 06:50:01;;;;;;;4.22;3.75;;;;;;;;;;10421748;28;20317;-75
2023/09/02 06:55:03;;;;;;;4.35;4.07;;;;;;;;;;10419622;28;20215;-71
2023/09/02 07:00:05;;;;;;;9.27;4.28;;;;;;;;;;10422951;28;20490;-72
2023/09/02 07:05:07;;;;;;;4.15;3.30;;;;;;;;;;10421426;28;20206;-74
2023/09/02 07:10:08;;;;;;;5.68;3.22;;;;;;;;;;10423713;28;20217;-72
2023/09/02 07:15:09;;;;;;;4.65;4.13;;;;;;;;;;10428562;28;20708;-74
2023/09/02 07:20:11;;;;;;;3.95;3.65;;;;;;;;;;10427741;28;20211;-72
2023/09/02 07:25:12;;;;;;;3.05;2.72;;;;;;;;;;10404079;28;20251;-73
2023/09/02 07:30:13;;;;;;;3.47;3.17;;;;;;;;;;10422224;28;20214;-72
2023/09/02 07:35:14;;;;;;;3.20;2.78;;;;;;;;;;10403446;28;20246;-72
2023/09/02 07:40:15;;;;;;;3.10;2.92;;;;;;;;;;10399223;28;20266;-70
2023/09/02 07:45:16;;;;;;;3.38;3.08;;;;;;;;;;10421073;28;20255;-70
2023/09/02 07:50:17;;;;;;;3.15;3.05;;;;;;;;;;10416904;28;20215;-70
2023/09/02 07:55:18;;;;;;;4.25;2.95;;;;;;;;;;10421603;28;20172;-71
2023/09/02 08:00:20;;;;;;;2.35;2.25;;;;;;;;;;10425041;28;20207;-72
2023/09/02 08:05:22;;;;;;;1.52;1.42;;;;;;;;;;10428509;28;20182;-73
2023/09/02 08:10:23;;;;;;;1.98;1.88;;;;;;;;;;10427825;28;20677;-73
2023/09/02 08:15:24;;;;;;;2.35;2.25;;;;;;;;;;10415620;28;20233;-72
2023/09/02 08:20:26;;;;;;;3.28;2.33;;;;;;;;;;10429910;28;20227;-74
2023/09/02 08:25:27;;;;;;;3.05;2.83;;;;;;;;;;10428298;28;20204;-72
2023/09/02 08:30:28;;;;;;;5.13;2.50;;;;;;;;;;10425038;28;20693;-74
2023/09/02 08:35:34;;;;;;;2.65;1.98;;;;;;;;;;10428265;28;20709;-73
2023/09/02 08:40:35;;;;;;;2.35;2.15;;;;;;;;;;10425529;28;20222;-72
2023/09/02 08:45:38;;;;;;;2.42;2.22;;;;;;;;;;10428503;28;20689;-71
2023/09/02 08:50:39;;;;;;;2.00;1.83;;;;;;;;;;10425529;28;20231;-75
2023/09/02 08:55:41;;;;;;;5.68;2.10;;;;;;;;;;10407259;28;20219;-72
2023/09/02 09:00:42;;;;;;;1.83;1.73;;;;;;;;;;10410330;28;20234;-73
2023/09/02 09:05:44;;;;;;;1.40;1.33;;;;;;;;;;10424636;28;20241;-72
2023/09/02 09:10:45;;;;;;;3.83;2.35;;;;;;;;;;10425221;28;20216;-71
2023/09/02 09:15:47;;;;;;;2.00;1.90;;;;;;;;;;10423143;28;20235;-73
2023/09/02 09:20:48;;;;;;;1.85;1.77;;;;;;;;;;10424804;28;20716;-74
2023/09/02 09:25:52;;;;;;;4.43;2.10;;;;;;;;;;10423008;28;20222;-75
2023/09/02 09:30:53;;;;;;;1.83;1.73;;;;;;;;;;10425360;28;20269;-72
2023/09/02 09:36:09;;;;;;;2.50;2.20;;;;;;;;;;10421541;28;20214;-73
2023/09/02 09:41:11;;;;;;;2.25;1.35;;;;;;;;;;10441332;28;20588;-76
2023/09/02 09:46:15;;;;;;;3.13;1.40;;;;;;;;;;10422999;28;20215;-73
2023/09/02 09:51:22;;;;;;;1.65;1.65;;;;;;;;;;10422515;28;20215;-72
2023/09/02 09:56:24;;;;;;;2.05;1.90;;;;;;;;;;10421885;28;20377;-71
2023/09/02 10:01:25;;;;;;;2.17;2.08;;;;;;;;;;10414114;28;20215;-73
2023/09/02 10:06:26;;;;;;;1.45;1.45;;;;;;;;;;10424800;28;20639;-73
2023/09/02 10:11:27;;;;;;;3.55;1.85;;;;;;;;;;10423422;28;20219;-72
2023/09/02 10:16:29;;;;;;;2.05;1.67;;;;;;;;;;10425081;28;20239;-73
2023/09/02 10:21:35;;;;;;;1.55;1.55;;;;;;;;;;10411831;28;20229;-73
2023/09/02 10:26:40;;;;;;;2.70;1.98;;;;;;;;;;10422565;28;20230;-71
2023/09/02 10:31:42;;;;;;;2.25;1.25;;;;;;;;;;10410180;28;20226;-72
2023/09/02 10:36:48;;;;;;;2.08;1.80;;;;;;;;;;10438897;28;20208;-74
2023/09/02 10:41:50;;;;;;;1.70;1.60;;;;;;;;;;10408022;28;20684;-74
2023/09/02 10:46:51;;;;;;;1.60;1.60;;;;;;;;;;10421164;28;20211;-72
2023/09/02 10:51:52;;;;;;;1.80;1.80;;;;;;;;;;10422900;28;20249;-74
2023/09/02 10:56:53;;;;;;;3.03;2.08;;;;;;;;;;10406788;28;20812;-72
2023/09/02 11:01:55;;;;;;;2.17;1.60;;;;;;;;;;10421652;28;20238;-71
2023/09/02 11:07:14;;;;;;;1.70;1.70;;;;;;;;;;10422229;28;20213;-74
2023/09/02 11:12:16;;;;;;;2.05;1.95;;;;;;;;;;10423088;28;20661;-74
2023/09/02 11:17:27;;;;;;;1.80;1.70;;;;;;;;;;10412425;28;20241;-73
2023/09/02 11:22:55;;;;;;;1.63;1.52;;;;;;;;;;10420912;28;20218;-72
2023/09/02 11:27:59;;;;;;;1.55;1.55;;;;;;;;;;10419801;28;20211;-75
2023/09/02 11:33:00;;;;;;;1.45;1.45;;;;;;;;;;10420248;28;20219;-72
2023/09/02 11:38:02;;;;;;;1.40;1.40;;;;;;;;;;10428297;28;20226;-73
2023/09/02 11:43:03;;;;;;;1.70;1.60;;;;;;;;;;10437291;28;20211;-72
2023/09/02 11:48:05;;;;;;;1.50;1.23;;;;;;;;;;10429882;28;20305;-73
2023/09/02 11:53:06;;;;;;;1.60;1.48;;;;;;;;;;10410337;28;20747;-75
2023/09/02 11:58:10;;;;;;;1.25;1.20;;;;;;;;;;10429915;28;20310;-74
2023/09/02 12:03:13;;;;;;;1.75;1.20;;;;;;;;;;10434192;28;20215;-74
2023/09/02 12:08:15;;;;;;;2.20;1.20;;;;;;;;;;10413146;28;20227;-75
2023/09/02 12:13:17;;;;;;;1.20;1.20;;;;;;;;;;10414855;28;20225;-74
2023/09/02 12:18:20;;;;;;;2.55;1.27;;;;;;;;;;10434902;28;20223;-74
2023/09/02 12:23:21;;;;;;;0.80;0.80;;;;;;;;;;10424778;28;21047;-74
2023/09/02 12:28:22;;;;;;;0.85;0.85;;;;;;;;;;10423732;28;20324;-72
2023/09/02 12:33:26;;;;;;;3.70;0.90;;;;;;;;;;10426884;28;20229;-75
2023/09/02 12:38:27;;;;;;;0.75;0.70;;;;;;;;;;10426348;28;20656;-72
2023/09/02 12:43:28;;;;;;;2.15;1.00;;;;;;;;;;10425916;28;20212;-71
2023/09/02 12:48:30;;;;;;;0.70;0.70;;;;;;;;;;10413550;28;20215;-72
2023/09/02 12:53:31;;;;;;;1.02;1.00;;;;;;;;;;10422629;28;20696;-71
2023/09/02 12:58:32;;;;;;;0.85;0.85;;;;;;;;;;10419684;28;20253;-73
2023/09/02 13:03:33;;;;;;;1.40;0.70;;;;;;;;;;10429502;28;20618;-70
2023/09/02 13:08:34;;;;;;;0.60;0.60;;;;;;;;;;10427545;28;20210;-71
2023/09/02 13:13:35;;;;;;;0.60;0.60;;;;;;;;;;10426971;28;20219;-70
2023/09/02 13:18:36;;;;;;;0.70;0.70;;;;;;;;;;10431278;28;20610;-71
2023/09/02 13:23:38;;;;;;;0.60;0.60;;;;;;;;;;10408235;28;20238;-72
2023/09/02 13:28:39;;;;;;;0.60;0.60;;;;;;;;;;10423675;28;20418;-73
2023/09/02 13:33:42;;;;;;;0.60;0.60;;;;;;;;;;10424772;28;20248;-71
2023/09/02 13:38:43;;;;;;;1.08;0.50;;;;;;;;;;10425057;28;20204;-72
2023/09/02 13:43:44;;;;;;;2.45;0.50;;;;;;;;;;10424552;28;20210;-71
2023/09/02 13:48:45;;;;;;;1.85;0.70;;;;;;;;;;10427550;28;20237;-71
2023/09/02 13:53:46;;;;;;;1.65;0.60;;;;;;;;;;10420261;28;20253;-71
2023/09/02 13:58:51;;;;;;;0.60;0.60;;;;;;;;;;10408694;28;20211;-70
2023/09/02 14:03:52;;;;;;;0.60;0.60;;;;;;;;;;10424844;28;20216;-73
2023/09/02 14:08:53;;;;;;;0.40;0.40;;;;;;;;;;10428717;28;20334;-75
2023/09/02 14:13:54;;;;;;;0.40;0.40;;;;;;;;;;10414945;28;20606;-76
2023/09/02 14:18:55;;;;;;;0.50;0.50;;;;;;;;;;10412907;28;20272;-71
2023/09/02 14:23:56;;;;;;;1.08;0.40;;;;;;;;;;10401294;28;20210;-70
2023/09/02 14:28:58;;;;;;;0.40;0.40;;;;;;;;;;10406097;28;20222;-74
2023/09/02 14:33:59;;;;;;;0.38;0.38;;;;;;;;;;10413604;28;20221;-73
2023/09/02 14:39:05;;;;;;;0.38;0.38;;;;;;;;;;10423041;28;20219;-74
2023/09/02 14:44:09;;;;;;;0.40;0.40;;;;;;;;;;10412690;28;20210;-72
2023/09/02 14:49:11;;;;;;;0.30;0.30;;;;;;;;;;10428727;28;20433;-75
2023/09/02 14:54:13;;;;;;;0.40;0.40;;;;;;;;;;10421800;28;20220;-72
2023/09/02 14:59:21;;;;;;;0.30;0.30;;;;;;;;;;10415173;28;20223;-72
2023/09/02 15:04:22;;;;;;;0.30;0.30;;;;;;;;;;10421921;28;20211;-72
2023/09/02 15:09:31;;;;;;;0.30;0.30;;;;;;;;;;10420622;28;20710;-72
2023/09/02 15:14:34;;;;;;;0.35;0.35;;;;;;;;;;10404023;28;20781;-73
2023/09/02 15:19:35;;;;;;;0.40;0.40;;;;;;;;;;10418809;28;20211;-71
2023/09/02 15:24:37;;;;;;;0.43;0.43;;;;;;;;;;10422433;28;20214;-71
2023/09/02 15:29:39;;;;;;;0.35;0.35;;;;;;;;;;10417939;28;20238;-72
2023/09/02 15:34:49;;;;;;;17.20;11.32;;;;;;;;;;10405908;28;20207;-72
2023/09/02 15:39:52;;;;;;;2.35;2.25;;;;;;;;;;10426348;28;20215;-71
2023/09/02 15:44:53;;;;;;;0.50;0.50;;;;;;;;;;10420669;28;20693;-71
2023/09/02 15:49:55;;;;;;;0.73;0.73;;;;;;;;;;10409087;28;20592;-72
2023/09/02 15:54:56;;;;;;;0.52;0.52;;;;;;;;;;10417495;28;20309;-71
2023/09/02 15:59:57;;;;;;;0.90;0.90;;;;;;;;;;10421852;28;20207;-73
2023/09/02 16:04:58;;;;;;;1.98;0.90;;;;;;;;;;10420250;28;20285;-71
2023/09/02 16:09:59;;;;;;;1.10;1.10;;;;;;;;;;10417590;28;20697;-70
2023/09/02 16:15:00;;;;;;;1.50;1.15;;;;;;;;;;10416436;28;20238;-73
2023/09/02 16:20:01;;;;;;;1.30;1.20;;;;;;;;;;10428075;28;20219;-72
2023/09/02 16:25:03;;;;;;;1.05;1.05;;;;;;;;;;10429167;28;20210;-71
2023/09/02 16:30:05;;;;;;;0.95;0.95;;;;;;;;;;10419570;28;20249;-70
2023/09/02 16:35:06;;;;;;;0.65;0.65;;;;;;;;;;10425748;28;20208;-73
2023/09/02 16:40:08;;;;;;;1.52;0.65;;;;;;;;;;10432112;28;20222;-72
2023/09/02 16:45:11;;;;;;;0.88;0.88;;;;;;;;;;10412707;28;20202;-74
2023/09/02 16:50:16;;;;;;;1.30;1.20;;;;;;;;;;10428757;28;20434;-71
2023/09/02 16:55:18;;;;;;;1.13;1.13;;;;;;;;;;10410527;28;20183;-72
2023/09/02 17:00:20;;;;;;;1.17;1.17;;;;;;;;;;10426097;28;20214;-73
2023/09/02 17:05:23;;;;;;;1.33;1.23;;;;;;;;;;10441925;28;20219;-73
2023/09/02 17:10:25;;;;;;;1.27;1.25;;;;;;;;;;10414296;28;20215;-76
2023/09/02 17:15:34;;;;;;;1.23;1.23;;;;;;;;;;10427697;28;21064;-70
2023/09/02 17:20:37;;;;;;;2.55;1.25;;;;;;;;;;10409967;28;20314;-75
2023/09/02 17:25:40;;;;;;;1.33;1.33;;;;;;;;;;10425895;28;20207;-70
2023/09/02 17:30:41;;;;;;;1.58;1.58;;;;;;;;;;10429534;28;20288;-73
2023/09/02 17:35:42;;;;;;;2.10;1.70;;;;;;;;;;10414428;28;20379;-73
2023/09/02 17:40:43;;;;;;;1.63;1.52;;;;;;;;;;10417335;28;20213;-71
2023/09/02 17:45:44;;;;;;;3.90;1.85;;;;;;;;;;10424583;28;20301;-72
2023/09/02 17:50:46;;;;;;;1.58;1.58;;;;;;;;;;10403760;28;20249;-71
2023/09/02 17:55:47;;;;;;;1.30;1.30;;;;;;;;;;10423237;28;20214;-74
2023/09/02 18:00:48;;;;;;;1.73;1.70;;;;;;;;;;10423569;28;20206;-73
2023/09/02 18:05:49;;;;;;;1.63;1.52;;;;;;;;;;10424589;28;20485;-71
2023/09/02 18:10:50;;;;;;;1.63;1.60;;;;;;;;;;10422398;28;20219;-69
2023/09/02 18:15:51;;;;;;;1.52;1.52;;;;;;;;;;10422144;28;20720;-70
2023/09/02 18:20:52;;;;;;;1.38;1.38;;;;;;;;;;10423619;28;20334;-71
2023/09/02 18:25:53;;;;;;;1.80;1.23;;;;;;;;;;10421224;28;20204;-73
2023/09/02 18:30:54;;;;;;;1.55;1.55;;;;;;;;;;10429271;28;20222;-74
2023/09/02 18:35:55;;;;;;;1.98;1.88;;;;;;;;;;10409833;28;20214;-70
2023/09/02 18:40:56;;;;;;;1.75;1.65;;;;;;;;;;10423524;28;20252;-71
2023/09/02 18:45:57;;;;;;;1.65;1.65;;;;;;;;;;10420988;28;20218;-72
2023/09/02 18:50:58;;;;;;;2.45;2.25;;;;;;;;;;10423293;28;20331;-72
2023/09/02 18:56:00;;;;;;;2.25;2.15;;;;;;;;;;10409520;28;20681;-72
2023/09/02 19:01:01;;;;;;;2.30;2.20;;;;;;;;;;10425677;28;20329;-71
2023/09/02 19:06:02;;;;;;;2.65;2.47;;;;;;;;;;10425337;28;20333;-74
2023/09/02 19:11:03;;;;;;;2.70;2.53;;;;;;;;;;10424687;28;20227;-69
2023/09/02 19:16:04;;;;;;;3.42;3.22;;;;;;;;;;10424409;28;20788;-71
2023/09/02 19:21:05;;;;;;;3.72;3.53;;;;;;;;;;10408352;28;20211;-72
2023/09/02 19:26:06;;;;;;;3.97;3.28;;;;;;;;;;10424340;28;20207;-70
2023/09/02 19:31:08;;;;;;;3.28;3.08;;;;;;;;;;10426089;28;20219;-69
2023/09/02 19:36:09;;;;;;;3.92;3.60;;;;;;;;;;10424343;28;20211;-74
2023/09/02 19:41:10;;;;;;;3.75;3.45;;;;;;;;;;10422860;28;20626;-72
2023/09/02 19:46:11;;;;;;;2.72;2.63;;;;;;;;;;10421473;28;20214;-74
2023/09/02 19:51:15;;;;;;;2.70;2.60;;;;;;;;;;10429225;28;20559;-72
2023/09/02 19:56:16;;;;;;;4.88;4.45;;;;;;;;;;10430910;28;20238;-70
2023/09/02 20:01:18;;;;;;;4.00;3.70;;;;;;;;;;10432392;28;20215;-72
2023/09/02 20:06:19;;;;;;;3.47;3.17;;;;;;;;;;10429903;28;20222;-73
2023/09/02 20:11:20;;;;;;;3.45;3.20;;;;;;;;;;10411847;28;20274;-73
2023/09/02 20:16:21;;;;;;;2.50;2.40;;;;;;;;;;10426015;28;20234;-73
2023/09/02 20:21:24;;;;;;;2.80;2.60;;;;;;;;;;10405121;28;20427;-72
2023/09/02 20:26:25;;;;;;;2.53;2.42;;;;;;;;;;10422461;28;20277;-73
2023/09/02 20:31:26;;;;;;;3.00;2.80;;;;;;;;;;10423064;28;20218;-71
2023/09/02 20:36:27;;;;;;;3.45;3.25;;;;;;;;;;10423390;28;20562;-73
2023/09/02 20:41:28;;;;;;;3.15;2.95;;;;;;;;;;10425115;28;20249;-73
2023/09/02 20:46:29;;;;;;;2.65;2.55;;;;;;;;;;10424622;28;20678;-75
2023/09/02 20:51:30;;;;;;;3.28;3.08;;;;;;;;;;10407088;28;20214;-73
2023/09/02 20:56:32;;;;;;;3.33;2.72;;;;;;;;;;10423524;28;20235;-76
2023/09/02 21:01:34;;;;;;;11.63;4.22;;;;;;;;;;10430426;28;20406;-73
2023/09/02 21:06:35;;;;;;;4.43;4.00;;;;;;;;;;10428046;28;20243;-70
2023/09/02 21:11:36;;;;;;;4.85;3.08;;;;;;;;;;10424304;28;20248;-69
2023/09/02 21:16:37;;;;;;;3.90;3.28;;;;;;;;;;10407271;28;20253;-70
2023/09/02 21:21:38;;;;;;;4.07;3.50;;;;;;;;;;10421171;28;20251;-76
2023/09/02 21:26:39;;;;;;;3.60;3.40;;;;;;;;;;10429525;28;20748;-73
2023/09/02 21:31:40;;;;;;;3.78;3.40;;;;;;;;;;10424107;28;20227;-72
2023/09/02 21:36:42;;;;;;;4.20;3.88;;;;;;;;;;10425686;28;20313;-75
2023/09/02 21:41:43;;;;;;;3.58;3.28;;;;;;;;;;10424074;28;20253;-73
2023/09/02 21:46:44;;;;;;;5.57;4.55;;;;;;;;;;10427050;28;20240;-73
2023/09/02 21:51:45;;;;;;;5.03;4.10;;;;;;;;;;10423282;28;20724;-70
2023/09/02 21:56:46;;;;;;;5.13;3.55;;;;;;;;;;10424764;28;20684;-70
2023/09/02 22:01:48;;;;;;;3.22;2.95;;;;;;;;;;10420687;28;20242;-70
2023/09/02 22:06:49;;;;;;;3.53;3.17;;;;;;;;;;10420526;28;20211;-73
2023/09/02 22:11:50;;;;;;;3.10;2.90;;;;;;;;;;10423429;28;20214;-72
2023/09/02 22:16:51;;;;;;;4.32;4.03;;;;;;;;;;10422107;28;20275;-73
2023/09/02 22:21:52;;;;;;;6.18;3.90;;;;;;;;;;10394720;28;20318;-74
2023/09/02 22:26:53;;;;;;;3.53;3.20;;;;;;;;;;10423478;28;20207;-73
2023/09/02 22:31:54;;;;;;;3.90;3.42;;;;;;;;;;10413890;28;20298;-74
2023/09/02 22:36:56;;;;;;;3.85;3.53;;;;;;;;;;10419243;28;20229;-73
2023/09/02 22:41:57;;;;;;;22.05;10.68;;;;;;;;;;10421139;28;20207;-72
2023/09/02 22:46:58;;;;;;;17.15;10.18;;;;;;;;;;10419870;28;20215;-73
2023/09/02 22:51:59;;;;;;;3.60;3.30;;;;;;;;;;10417263;28;20215;-73
2023/09/02 22:57:01;;;;;;;2.42;2.33;;;;;;;;;;10418584;28;20210;-70
2023/09/02 23:02:02;;;;;;;3.55;3.35;;;;;;;;;;10420137;28;20214;-73
2023/09/02 23:07:04;;;;;;;3.10;2.97;;;;;;;;;;10419181;28;20202;-71
2023/09/02 23:12:05;;;;;;;4.05;3.30;;;;;;;;;;10423293;28;20222;-71
2023/09/02 23:17:06;;;;;;;2.90;2.65;;;;;;;;;;10419127;28;20276;-70
2023/09/02 23:22:07;;;;;;;3.00;2.83;;;;;;;;;;10419792;28;20215;-69
2023/09/02 23:27:09;;;;;;;5.53;3.35;;;;;;;;;;10425498;28;20231;-69
2023/09/02 23:32:10;;;;;;;3.15;2.95;;;;;;;;;;10429090;28;20246;-71
2023/09/02 23:37:11;;;;;;;3.38;3.17;;;;;;;;;;10395121;28;20715;-72
2023/09/02 23:42:13;;;;;;;2.78;2.58;;;;;;;;;;10430700;28;20364;-71
2023/09/02 23:47:14;;;;;;;2.45;2.30;;;;;;;;;;10432573;28;20219;-72
2023/09/02 23:52:15;;;;;;;2.67;2.58;;;;;;;;;;10428524;28;20277;-74
2023/09/02 23:57:16;;;;;;;2.40;2.25;;;;;;;;;;10441635;28;20219;-71
